Vejr og vind

Viden om vejr og vind er en vigtig del af forberedelsen før enhver flyvning.
Herunder er vist links til sider om  vejr og vind og andre nyttige oplysninger.
Du kan finde information om det helt aktuelle vejr (METAR) og udsigt for de kommende timer (TAF) for åbne lufthavne.
I højre side vises informationer for Aalborg = EKYT (døgnåbent).

 

NorthAviMet (login: SULF & Sindal9394 )
Metar / taf oversætter
Vejret.info med oversætter (vælg sted under Danmark & Færøerne)
Earth Wind
Naviair: Digital indsendelse af ATS flyveplan
Naviair: NOTAM / SNOWTAM (vælg kode under By)
Naviair: PRD (skydeområder)
SkyVector
TAF Aalborg
EKYT 091714Z 0918/1018 30006KT 9999 FEW200 BECMG 0918/0920 20003KT TEMPO 0923/1005 1200 BCFG PROB40 0923/1005 BKN002 TEMPO 1005/1007 3000 BR BKN006 BECMG 1007/1009 23008KT
METAR Aalborg
EKYT 091720Z AUTO 31005KT 280V350 9999 FEW240/// 18/12 Q1028 EKYT 091650Z AUTO 31005KT 270V350 9999 NCD 19/13 Q1028 EKYT 091620Z AUTO 31006KT 280V340 9999 FEW240/// 19/13 Q1028 EKYT 091550Z AUTO 32005KT 290V350 9999 FEW230/// 19/13 Q1029 EKYT 091520Z AUTO 30007KT 9999 FEW029/// 20/13 Q1029 EKYT 091450Z AUTO 30006KT 250V350 9999 FEW027/// BKN031/// 20/13 Q1029 TAF EKYT 091714Z 0918/1018 30006KT 9999 FEW200 BECMG 0918/0920 20003KT TEMPO 0923/1005 1200 BCFG PROB40 0923/1005 BKN002 TEMPO 1005/1007 3000 BR BKN006 BECMG 1007/1009 23008KT